sensor_id;sensor_type;location;lat;lon;timestamp;pressure;altitude;pressure_sealevel;temperature;humidity
70544;BME280;58097;48.364;-1.224;2024-01-15T00:01:06;99195.72;;;2.41;100.00
70544;BME280;58097;48.364;-1.224;2024-01-15T00:03:32;99195.97;;;2.38;100.00
70544;BME280;58097;48.364;-1.224;2024-01-15T00:05:57;99192.00;;;2.42;100.00
70544;BME280;58097;48.364;-1.224;2024-01-15T00:08:23;99195.22;;;2.47;100.00
70544;BME280;58097;48.364;-1.224;2024-01-15T00:10:48;99201.28;;;2.51;100.00
70544;BME280;58097;48.364;-1.224;2024-01-15T00:13:13;99201.28;;;2.51;100.00
70544;BME280;58097;48.364;-1.224;2024-01-15T00:15:39;99195.81;;;2.51;100.00
70544;BME280;58097;48.364;-1.224;2024-01-15T00:18:05;99199.53;;;2.50;100.00
70544;BME280;58097;48.364;-1.224;2024-01-15T00:20:30;99200.28;;;2.52;100.00
70544;BME280;58097;48.364;-1.224;2024-01-15T00:22:56;99201.00;;;2.54;100.00
70544;BME280;58097;48.364;-1.224;2024-01-15T00:25:21;99196.44;;;2.55;100.00
70544;BME280;58097;48.364;-1.224;2024-01-15T00:27:46;99197.91;;;2.59;100.00
70544;BME280;58097;48.364;-1.224;2024-01-15T00:30:12;99187.97;;;2.58;100.00
70544;BME280;58097;48.364;-1.224;2024-01-15T00:32:37;99181.31;;;2.51;100.00
70544;BME280;58097;48.364;-1.224;2024-01-15T00:35:03;99184.91;;;2.51;100.00
70544;BME280;58097;48.364;-1.224;2024-01-15T00:37:28;99177.72;;;2.50;100.00
70544;BME280;58097;48.364;-1.224;2024-01-15T00:39:54;99180.19;;;2.53;100.00
70544;BME280;58097;48.364;-1.224;2024-01-15T00:42:19;99172.13;;;2.63;100.00
70544;BME280;58097;48.364;-1.224;2024-01-15T00:44:44;99171.88;;;2.66;100.00
70544;BME280;58097;48.364;-1.224;2024-01-15T00:47:10;99174.47;;;2.67;100.00
70544;BME280;58097;48.364;-1.224;2024-01-15T00:49:35;99171.72;;;2.67;100.00
70544;BME280;58097;48.364;-1.224;2024-01-15T00:52:00;99174.72;;;2.64;100.00
70544;BME280;58097;48.364;-1.224;2024-01-15T00:54:28;99173.97;;;2.62;100.00
70544;BME280;58097;48.364;-1.224;2024-01-15T00:56:53;99173.97;;;2.62;100.00
70544;BME280;58097;48.364;-1.224;2024-01-15T00:59:20;99169.53;;;2.61;100.00
70544;BME280;58097;48.364;-1.224;2024-01-15T01:01:46;99148.56;;;2.62;100.00
70544;BME280;58097;48.364;-1.224;2024-01-15T01:04:11;99159.34;;;2.63;100.00
70544;BME280;58097;48.364;-1.224;2024-01-15T01:06:37;99155.97;;;2.60;100.00
70544;BME280;58097;48.364;-1.224;2024-01-15T01:09:02;99146.94;;;2.59;100.00
70544;BME280;58097;48.364;-1.224;2024-01-15T01:11:27;99143.47;;;2.57;100.00
70544;BME280;58097;48.364;-1.224;2024-01-15T01:13:53;99143.25;;;2.60;100.00
70544;BME280;58097;48.364;-1.224;2024-01-15T01:16:18;99139.75;;;2.58;100.00
70544;BME280;58097;48.364;-1.224;2024-01-15T01:18:43;99137.16;;;2.57;100.00
70544;BME280;58097;48.364;-1.224;2024-01-15T01:21:09;99137.28;;;2.55;100.00
70544;BME280;58097;48.364;-1.224;2024-01-15T01:23:34;99129.97;;;2.56;100.00
70544;BME280;58097;48.364;-1.224;2024-01-15T01:25:59;99135.16;;;2.59;100.00
70544;BME280;58097;48.364;-1.224;2024-01-15T01:28:25;99124.16;;;2.60;100.00
70544;BME280;58097;48.364;-1.224;2024-01-15T01:30:50;99125.88;;;2.61;100.00
70544;BME280;58097;48.364;-1.224;2024-01-15T01:33:15;99126.63;;;2.63;100.00
70544;BME280;58097;48.364;-1.224;2024-01-15T01:35:41;99127.34;;;2.65;100.00
70544;BME280;58097;48.364;-1.224;2024-01-15T01:38:06;99137.25;;;2.66;100.00
70544;BME280;58097;48.364;-1.224;2024-01-15T01:40:31;99128.94;;;2.68;100.00
70544;BME280;58097;48.364;-1.224;2024-01-15T01:42:57;99129.06;;;2.66;100.00
70544;BME280;58097;48.364;-1.224;2024-01-15T01:45:22;99134.28;;;2.69;100.00
70544;BME280;58097;48.364;-1.224;2024-01-15T01:47:47;99127.41;;;2.75;100.00
70544;BME280;58097;48.364;-1.224;2024-01-15T01:50:13;99132.00;;;2.74;100.00
70544;BME280;58097;48.364;-1.224;2024-01-15T01:52:40;99124.56;;;2.76;100.00
70544;BME280;58097;48.364;-1.224;2024-01-15T01:55:06;99122.91;;;2.85;100.00
70544;BME280;58097;48.364;-1.224;2024-01-15T01:57:32;99128.09;;;2.88;100.00
70544;BME280;58097;48.364;-1.224;2024-01-15T01:59:59;99126.34;;;2.87;100.00
70544;BME280;58097;48.364;-1.224;2024-01-15T02:02:25;99122.44;;;2.80;100.00
70544;BME280;58097;48.364;-1.224;2024-01-15T02:04:51;99124.03;;;2.83;100.00
70544;BME280;58097;48.364;-1.224;2024-01-15T02:07:16;99115.72;;;2.84;100.00
70544;BME280;58097;48.364;-1.224;2024-01-15T02:09:44;99122.91;;;2.85;100.00
70544;BME280;58097;48.364;-1.224;2024-01-15T02:12:09;99124.88;;;2.83;100.00
70544;BME280;58097;48.364;-1.224;2024-01-15T02:14:35;99125.88;;;2.82;100.00
70544;BME280;58097;48.364;-1.224;2024-01-15T02:17:00;99117.56;;;2.84;100.00
70544;BME280;58097;48.364;-1.224;2024-01-15T02:19:25;99116.72;;;2.83;100.00
70544;BME280;58097;48.364;-1.224;2024-01-15T02:21:51;99115.84;;;2.83;100.00
70544;BME280;58097;48.364;-1.224;2024-01-15T02:24:16;99107.91;;;2.79;100.00
70544;BME280;58097;48.364;-1.224;2024-01-15T02:26:42;99109.91;;;2.77;100.00
70544;BME280;58097;48.364;-1.224;2024-01-15T02:29:07;99111.66;;;2.78;100.00
70544;BME280;58097;48.364;-1.224;2024-01-15T02:31:35;99110.19;;;2.74;100.00
70544;BME280;58097;48.364;-1.224;2024-01-15T02:34:01;99107.47;;;2.74;100.00
70544;BME280;58097;48.364;-1.224;2024-01-15T02:36:26;99104.13;;;2.71;100.00
70544;BME280;58097;48.364;-1.224;2024-01-15T02:38:51;99103.13;;;2.72;100.00
70544;BME280;58097;48.364;-1.224;2024-01-15T02:41:16;99106.00;;;2.70;100.00
70544;BME280;58097;48.364;-1.224;2024-01-15T02:43:42;99099.53;;;2.71;100.00
70544;BME280;58097;48.364;-1.224;2024-01-15T02:46:07;99100.53;;;2.70;100.00
70544;BME280;58097;48.364;-1.224;2024-01-15T02:48:32;99096.81;;;2.71;100.00
70544;BME280;58097;48.364;-1.224;2024-01-15T02:51:00;99101.28;;;2.72;100.00
70544;BME280;58097;48.364;-1.224;2024-01-15T02:53:25;99097.41;;;2.75;100.00
70544;BME280;58097;48.364;-1.224;2024-01-15T02:55:51;99106.31;;;2.77;100.00
70544;BME280;58097;48.364;-1.224;2024-01-15T02:58:16;99110.78;;;2.78;100.00
70544;BME280;58097;48.364;-1.224;2024-01-15T03:00:41;99108.91;;;2.78;100.00
70544;BME280;58097;48.364;-1.224;2024-01-15T03:03:07;99106.91;;;2.80;100.00
70544;BME280;58097;48.364;-1.224;2024-01-15T03:05:33;99104.06;;;2.82;100.00
70544;BME280;58097;48.364;-1.224;2024-01-15T03:07:58;99115.56;;;2.86;100.00
70544;BME280;58097;48.364;-1.224;2024-01-15T03:10:23;99109.13;;;2.87;100.00
70544;BME280;58097;48.364;-1.224;2024-01-15T03:12:49;99111.72;;;2.88;100.00
70544;BME280;58097;48.364;-1.224;2024-01-15T03:15:14;99104.38;;;2.89;100.00
70544;BME280;58097;48.364;-1.224;2024-01-15T03:17:41;99106.03;;;2.91;100.00
70544;BME280;58097;48.364;-1.224;2024-01-15T03:20:08;99105.28;;;2.89;100.00
70544;BME280;58097;48.364;-1.224;2024-01-15T03:22:33;99096.47;;;2.86;100.00
70544;BME280;58097;48.364;-1.224;2024-01-15T03:24:59;99093.56;;;2.77;100.00
70544;BME280;58097;48.364;-1.224;2024-01-15T03:27:24;99094.41;;;2.78;100.00
70544;BME280;58097;48.364;-1.224;2024-01-15T03:29:51;99089.22;;;2.75;100.00
70544;BME280;58097;48.364;-1.224;2024-01-15T03:32:16;99092.69;;;2.77;100.00
70544;BME280;58097;48.364;-1.224;2024-01-15T03:34:42;99104.72;;;2.74;100.00
70544;BME280;58097;48.364;-1.224;2024-01-15T03:37:07;99106.72;;;2.72;100.00
70544;BME280;58097;48.364;-1.224;2024-01-15T03:39:33;99104.00;;;2.72;100.00
70544;BME280;58097;48.364;-1.224;2024-01-15T03:41:58;99104.00;;;2.72;100.00
70544;BME280;58097;48.364;-1.224;2024-01-15T03:44:23;99101.00;;;2.75;100.00
70544;BME280;58097;48.364;-1.224;2024-01-15T03:46:49;99088.97;;;2.78;100.00
70544;BME280;58097;48.364;-1.224;2024-01-15T03:49:14;99090.81;;;2.77;100.00
70544;BME280;58097;48.364;-1.224;2024-01-15T03:51:40;99091.56;;;2.79;100.00
70544;BME280;58097;48.364;-1.224;2024-01-15T03:54:05;99088.41;;;2.84;100.00
70544;BME280;58097;48.364;-1.224;2024-01-15T03:56:30;99077.38;;;2.86;100.00
70544;BME280;58097;48.364;-1.224;2024-01-15T03:58:56;99067.94;;;2.90;100.00
70544;BME280;58097;48.364;-1.224;2024-01-15T04:01:21;99072.41;;;2.91;100.00
70544;BME280;58097;48.364;-1.224;2024-01-15T04:03:46;99064.94;;;2.93;100.00
70544;BME280;58097;48.364;-1.224;2024-01-15T04:06:12;99066.41;;;2.97;100.00
70544;BME280;58097;48.364;-1.224;2024-01-15T04:08:37;99064.28;;;3.00;100.00
70544;BME280;58097;48.364;-1.224;2024-01-15T04:11:02;99065.00;;;3.02;100.00
70544;BME280;58097;48.364;-1.224;2024-01-15T04:13:28;99056.69;;;3.04;100.00
70544;BME280;58097;48.364;-1.224;2024-01-15T04:15:53;99061.13;;;3.05;100.00
70544;BME280;58097;48.364;-1.224;2024-01-15T04:18:18;99056.69;;;3.04;100.00
70544;BME280;58097;48.364;-1.224;2024-01-15T04:20:44;99052.94;;;3.05;100.00
70544;BME280;58097;48.364;-1.224;2024-01-15T04:23:10;99049.22;;;3.06;100.00
70544;BME280;58097;48.364;-1.224;2024-01-15T04:25:35;99057.53;;;3.04;100.00
70544;BME280;58097;48.364;-1.224;2024-01-15T04:28:00;99051.06;;;3.05;100.00
70544;BME280;58097;48.364;-1.224;2024-01-15T04:30:26;99046.63;;;3.04;100.00
70544;BME280;58097;48.364;-1.224;2024-01-15T04:32:51;99045.34;;;3.08;100.00
70544;BME280;58097;48.364;-1.224;2024-01-15T04:35:16;99041.75;;;3.08;100.00
70544;BME280;58097;48.364;-1.224;2024-01-15T04:37:42;99041.03;;;3.06;100.00
70544;BME280;58097;48.364;-1.224;2024-01-15T04:40:08;99031.84;;;3.07;100.00
70544;BME280;58097;48.364;-1.224;2024-01-15T04:42:34;99034.69;;;3.05;100.00
70544;BME280;58097;48.364;-1.224;2024-01-15T04:44:59;99027.38;;;3.06;100.00
70544;BME280;58097;48.364;-1.224;2024-01-15T04:47:24;99028.25;;;3.06;100.00
70544;BME280;58097;48.364;-1.224;2024-01-15T04:49:50;99024.66;;;3.06;100.00
70544;BME280;58097;48.364;-1.224;2024-01-15T04:52:15;99023.66;;;3.07;100.00
70544;BME280;58097;48.364;-1.224;2024-01-15T04:54:40;99018.31;;;3.05;100.00
70544;BME280;58097;48.364;-1.224;2024-01-15T04:57:06;99010.13;;;3.05;100.00
70544;BME280;58097;48.364;-1.224;2024-01-15T04:59:31;99019.19;;;3.06;100.00
70544;BME280;58097;48.364;-1.224;2024-01-15T05:01:57;99017.47;;;3.05;100.00
70544;BME280;58097;48.364;-1.224;2024-01-15T05:04:22;99027.38;;;3.06;100.00
70544;BME280;58097;48.364;-1.224;2024-01-15T05:06:47;99014.72;;;3.05;100.00
70544;BME280;58097;48.364;-1.224;2024-01-15T05:09:13;99025.66;;;3.05;100.00
70544;BME280;58097;48.364;-1.224;2024-01-15T05:11:39;99032.69;;;3.07;100.00
70544;BME280;58097;48.364;-1.224;2024-01-15T05:14:04;99035.16;;;3.10;100.00
70544;BME280;58097;48.364;-1.224;2024-01-15T05:16:30;99029.97;;;3.07;100.00
70544;BME280;58097;48.364;-1.224;2024-01-15T05:18:55;99032.84;;;3.06;100.00
70544;BME280;58097;48.364;-1.224;2024-01-15T05:21:20;99033.84;;;3.05;100.00
70544;BME280;58097;48.364;-1.224;2024-01-15T05:23:45;99035.84;;;3.03;100.00
70544;BME280;58097;48.364;-1.224;2024-01-15T05:26:11;99031.38;;;3.02;100.00
70544;BME280;58097;48.364;-1.224;2024-01-15T05:28:36;99033.09;;;3.03;100.00
70544;BME280;58097;48.364;-1.224;2024-01-15T05:31:02;99027.78;;;3.01;100.00
70544;BME280;58097;48.364;-1.224;2024-01-15T05:33:28;99031.38;;;3.02;100.00
70544;BME280;58097;48.364;-1.224;2024-01-15T05:35:53;99023.91;;;3.04;100.00
70544;BME280;58097;48.364;-1.224;2024-01-15T05:38:19;99024.78;;;3.04;100.00
70544;BME280;58097;48.364;-1.224;2024-01-15T05:40:44;99020.06;;;3.06;100.00
70544;BME280;58097;48.364;-1.224;2024-01-15T05:43:09;99029.09;;;3.07;100.00
70544;BME280;58097;48.364;-1.224;2024-01-15T05:45:35;99026.25;;;3.08;100.00
70544;BME280;58097;48.364;-1.224;2024-01-15T05:48:01;99026.81;;;3.12;100.00
70544;BME280;58097;48.364;-1.224;2024-01-15T05:50:26;99022.22;;;3.13;100.00
70544;BME280;58097;48.364;-1.224;2024-01-15T05:52:51;99027.41;;;3.16;100.00
70544;BME280;58097;48.364;-1.224;2024-01-15T05:55:17;99025.69;;;3.15;100.00
70544;BME280;58097;48.364;-1.224;2024-01-15T05:57:44;99026.56;;;3.15;100.00
70544;BME280;58097;48.364;-1.224;2024-01-15T06:00:09;99034.50;;;3.18;100.00
70544;BME280;58097;48.364;-1.224;2024-01-15T06:02:37;99038.69;;;3.22;100.00
70544;BME280;58097;48.364;-1.224;2024-01-15T06:05:02;99025.16;;;3.21;100.00
70544;BME280;58097;48.364;-1.224;2024-01-15T06:07:28;99036.97;;;3.21;100.00
70544;BME280;58097;48.364;-1.224;2024-01-15T06:09:53;99028.63;;;3.23;100.00
70544;BME280;58097;48.364;-1.224;2024-01-15T06:12:18;99029.22;;;3.26;100.00
70544;BME280;58097;48.364;-1.224;2024-01-15T06:14:44;99035.69;;;3.25;100.00
70544;BME280;58097;48.364;-1.224;2024-01-15T06:17:09;99031.22;;;3.24;100.00
70544;BME280;58097;48.364;-1.224;2024-01-15T06:19:34;99025.63;;;3.26;100.00
70544;BME280;58097;48.364;-1.224;2024-01-15T06:22:00;99020.88;;;3.28;100.00
70544;BME280;58097;48.364;-1.224;2024-01-15T06:24:25;99023.75;;;3.26;100.00
70544;BME280;58097;48.364;-1.224;2024-01-15T06:26:50;99017.44;;;3.26;100.00
70544;BME280;58097;48.364;-1.224;2024-01-15T06:29:16;99016.28;;;3.28;100.00
70544;BME280;58097;48.364;-1.224;2024-01-15T06:31:41;99009.97;;;3.28;100.00
70544;BME280;58097;48.364;-1.224;2024-01-15T06:34:06;99016.44;;;3.27;100.00
70544;BME280;58097;48.364;-1.224;2024-01-15T06:36:32;99012.56;;;3.29;100.00
70544;BME280;58097;48.364;-1.224;2024-01-15T06:38:57;99015.00;;;3.32;100.00
70544;BME280;58097;48.364;-1.224;2024-01-15T06:41:22;99018.00;;;3.29;100.00
70544;BME280;58097;48.364;-1.224;2024-01-15T06:43:48;99015.16;;;3.31;100.00
70544;BME280;58097;48.364;-1.224;2024-01-15T06:46:20;99021.47;;;3.31;100.00
70544;BME280;58097;48.364;-1.224;2024-01-15T06:48:45;99009.81;;;3.29;100.00
70544;BME280;58097;48.364;-1.224;2024-01-15T06:51:10;99015.16;;;3.31;100.00
70544;BME280;58097;48.364;-1.224;2024-01-15T06:53:36;99017.88;;;3.31;100.00
70544;BME280;58097;48.364;-1.224;2024-01-15T06:56:01;99022.63;;;3.29;100.00
70544;BME280;58097;48.364;-1.224;2024-01-15T06:58:26;99033.41;;;3.30;100.00
70544;BME280;58097;48.364;-1.224;2024-01-15T07:00:51;99036.84;;;3.32;100.00
70544;BME280;58097;48.364;-1.224;2024-01-15T07:03:17;99033.97;;;3.34;100.00
70544;BME280;58097;48.364;-1.224;2024-01-15T07:05:42;99026.66;;;3.34;100.00
70544;BME280;58097;48.364;-1.224;2024-01-15T07:08:08;99031.25;;;3.34;100.00
70544;BME280;58097;48.364;-1.224;2024-01-15T07:10:33;99029.25;;;3.36;100.00
70544;BME280;58097;48.364;-1.224;2024-01-15T07:12:58;99037.72;;;3.33;100.00
70544;BME280;58097;48.364;-1.224;2024-01-15T07:15:24;99037.00;;;3.31;100.00
70544;BME280;58097;48.364;-1.224;2024-01-15T07:17:49;99044.31;;;3.30;100.00
70544;BME280;58097;48.364;-1.224;2024-01-15T07:20:14;99048.19;;;3.28;100.00
70544;BME280;58097;48.364;-1.224;2024-01-15T07:22:40;99045.47;;;3.28;100.00
70544;BME280;58097;48.364;-1.224;2024-01-15T07:25:06;99041.72;;;3.29;100.00
70544;BME280;58097;48.364;-1.224;2024-01-15T07:27:32;99054.50;;;3.28;100.00
70544;BME280;58097;48.364;-1.224;2024-01-15T07:29:57;99054.38;;;3.30;100.00
70544;BME280;58097;48.364;-1.224;2024-01-15T07:32:23;99049.50;;;3.33;100.00
70544;BME280;58097;48.364;-1.224;2024-01-15T07:34:48;99042.44;;;3.31;100.00
70544;BME280;58097;48.364;-1.224;2024-01-15T07:37:14;99043.31;;;3.31;100.00
70544;BME280;58097;48.364;-1.224;2024-01-15T07:39:39;99051.38;;;3.33;100.00
70544;BME280;58097;48.364;-1.224;2024-01-15T07:42:05;99043.03;;;3.34;100.00
70544;BME280;58097;48.364;-1.224;2024-01-15T07:44:30;99042.03;;;3.35;100.00
70544;BME280;58097;48.364;-1.224;2024-01-15T07:46:56;99050.22;;;3.35;100.00
70544;BME280;58097;48.364;-1.224;2024-01-15T07:49:21;99052.81;;;3.37;100.00
70544;BME280;58097;48.364;-1.224;2024-01-15T07:51:48;99059.16;;;3.37;100.00
70544;BME280;58097;48.364;-1.224;2024-01-15T07:54:14;99055.69;;;3.35;100.00
70544;BME280;58097;48.364;-1.224;2024-01-15T07:56:58;99066.34;;;3.38;100.00
70544;BME280;58097;48.364;-1.224;2024-01-15T07:59:24;99071.94;;;3.37;100.00
70544;BME280;58097;48.364;-1.224;2024-01-15T08:01:51;99069.34;;;3.35;100.00
70544;BME280;58097;48.364;-1.224;2024-01-15T08:04:16;99074.34;;;3.30;100.00
70544;BME280;58097;48.364;-1.224;2024-01-15T08:06:42;99074.03;;;3.24;100.00
70544;BME280;58097;48.364;-1.224;2024-01-15T08:09:07;99073.44;;;3.20;100.00
70544;BME280;58097;48.364;-1.224;2024-01-15T08:11:34;99071.09;;;3.16;100.00
70544;BME280;58097;48.364;-1.224;2024-01-15T08:13:59;99078.56;;;3.14;100.00
70544;BME280;58097;48.364;-1.224;2024-01-15T08:16:25;99071.50;;;3.11;100.00
70544;BME280;58097;48.364;-1.224;2024-01-15T08:18:50;99081.44;;;3.12;100.00
70544;BME280;58097;48.364;-1.224;2024-01-15T08:21:15;99085.56;;;3.06;100.00
70544;BME280;58097;48.364;-1.224;2024-01-15T08:23:41;99078.50;;;3.04;100.00
70544;BME280;58097;48.364;-1.224;2024-01-15T08:26:07;99085.97;;;3.02;100.00
70544;BME280;58097;48.364;-1.224;2024-01-15T08:28:32;99092.56;;;2.99;100.00
70544;BME280;58097;48.364;-1.224;2024-01-15T08:30:58;99083.50;;;2.99;100.00
70544;BME280;58097;48.364;-1.224;2024-01-15T08:33:23;99089.97;;;2.98;100.00
70544;BME280;58097;48.364;-1.224;2024-01-15T08:35:48;99089.69;;;3.01;100.00
70544;BME280;58097;48.364;-1.224;2024-01-15T08:38:13;99088.44;;;3.05;100.00
70544;BME280;58097;48.364;-1.224;2024-01-15T08:40:39;99104.66;;;3.06;100.00
70544;BME280;58097;48.364;-1.224;2024-01-15T08:43:04;99099.06;;;3.08;100.00
70544;BME280;58097;48.364;-1.224;2024-01-15T08:45:32;99094.22;;;3.11;100.00
70544;BME280;58097;48.364;-1.224;2024-01-15T08:47:57;99097.41;;;3.17;100.00
70544;BME280;58097;48.364;-1.224;2024-01-15T08:50:22;99096.16;;;3.21;100.00
70544;BME280;58097;48.364;-1.224;2024-01-15T08:52:48;99107.66;;;3.24;100.00
70544;BME280;58097;48.364;-1.224;2024-01-15T08:55:13;99098.22;;;3.28;100.00
70544;BME280;58097;48.364;-1.224;2024-01-15T08:57:38;99109.72;;;3.32;100.00
70544;BME280;58097;48.364;-1.224;2024-01-15T09:00:05;99110.03;;;3.38;100.00
70544;BME280;58097;48.364;-1.224;2024-01-15T09:02:34;99115.38;;;3.40;100.00
70544;BME280;58097;48.364;-1.224;2024-01-15T09:05:00;99123.16;;;3.45;100.00
70544;BME280;58097;48.364;-1.224;2024-01-15T09:07:25;99130.22;;;3.47;100.00
70544;BME280;58097;48.364;-1.224;2024-01-15T09:09:52;99127.09;;;3.52;100.00
70544;BME280;58097;48.364;-1.224;2024-01-15T09:12:17;99124.81;;;3.57;100.00
70544;BME280;58097;48.364;-1.224;2024-01-15T09:14:43;99119.06;;;3.60;100.00
70544;BME280;58097;48.364;-1.224;2024-01-15T09:17:09;99115.06;;;3.64;100.00
70544;BME280;58097;48.364;-1.224;2024-01-15T09:19:34;99115.06;;;3.64;100.00
70544;BME280;58097;48.364;-1.224;2024-01-15T09:22:00;99122.25;;;3.65;100.00
70544;BME280;58097;48.364;-1.224;2024-01-15T09:24:25;99117.66;;;3.65;100.00
70544;BME280;58097;48.364;-1.224;2024-01-15T09:26:50;99122.13;;;3.66;100.00
70544;BME280;58097;48.364;-1.224;2024-01-15T09:29:16;99129.44;;;3.66;100.00
70544;BME280;58097;48.364;-1.224;2024-01-15T09:31:43;99130.16;;;3.68;100.00
70544;BME280;58097;48.364;-1.224;2024-01-15T09:34:08;99137.56;;;3.77;100.00
70544;BME280;58097;48.364;-1.224;2024-01-15T09:36:39;99128.97;;;3.91;100.00
70544;BME280;58097;48.364;-1.224;2024-01-15T09:39:06;99128.00;;;4.02;100.00
70544;BME280;58097;48.364;-1.224;2024-01-15T09:41:34;99128.50;;;4.17;100.00
70544;BME280;58097;48.364;-1.224;2024-01-15T09:44:00;99125.09;;;4.34;100.00
70544;BME280;58097;48.364;-1.224;2024-01-15T09:46:27;99128.56;;;4.46;100.00
70544;BME280;58097;48.364;-1.224;2024-01-15T09:48:53;99127.84;;;4.53;100.00
70544;BME280;58097;48.364;-1.224;2024-01-15T09:51:19;99132.00;;;4.57;100.00
70544;BME280;58097;48.364;-1.224;2024-01-15T09:53:46;99141.22;;;4.56;100.00
70544;BME280;58097;48.364;-1.224;2024-01-15T09:56:12;99138.22;;;4.59;100.00
70544;BME280;58097;48.364;-1.224;2024-01-15T09:58:38;99141.66;;;4.52;100.00
70544;BME280;58097;48.364;-1.224;2024-01-15T10:01:04;99147.72;;;4.55;100.00
70544;BME280;58097;48.364;-1.224;2024-01-15T10:03:29;99148.72;;;4.54;100.00
70544;BME280;58097;48.364;-1.224;2024-01-15T10:05:59;99153.91;;;4.57;100.00
70544;BME280;58097;48.364;-1.224;2024-01-15T10:08:25;99157.34;;;4.59;100.00
70544;BME280;58097;48.364;-1.224;2024-01-15T10:10:50;99164.56;;;4.60;100.00
70544;BME280;58097;48.364;-1.224;2024-01-15T10:13:16;99161.69;;;4.62;100.00
70544;BME280;58097;48.364;-1.224;2024-01-15T10:15:45;99173.50;;;4.62;100.00
70544;BME280;58097;48.364;-1.224;2024-01-15T10:18:12;99167.91;;;4.64;100.00
70544;BME280;58097;48.364;-1.224;2024-01-15T10:20:37;99177.41;;;4.70;100.00
70544;BME280;58097;48.364;-1.224;2024-01-15T10:23:03;99169.94;;;4.72;100.00
70544;BME280;58097;48.364;-1.224;2024-01-15T10:25:29;99175.06;;;4.55;100.00
70544;BME280;58097;48.364;-1.224;2024-01-15T10:28:03;99183.56;;;4.62;100.00
70544;BME280;58097;48.364;-1.224;2024-01-15T10:30:29;99182.31;;;4.66;100.00
70544;BME280;58097;48.364;-1.224;2024-01-15T10:33:02;99179.88;;;4.73;100.00
70544;BME280;58097;48.364;-1.224;2024-01-15T10:35:32;99178.72;;;4.75;100.00
70544;BME280;58097;48.364;-1.224;2024-01-15T10:38:01;99178.72;;;4.85;100.00
70544;BME280;58097;48.364;-1.224;2024-01-15T10:40:28;99178.03;;;4.92;100.00
70544;BME280;58097;48.364;-1.224;2024-01-15T10:42:54;99185.09;;;4.95;100.00
70544;BME280;58097;48.364;-1.224;2024-01-15T10:45:19;99181.34;;;4.96;100.00
70544;BME280;58097;48.364;-1.224;2024-01-15T10:47:44;99178.56;;;4.86;100.00
70544;BME280;58097;48.364;-1.224;2024-01-15T10:50:11;99184.22;;;4.94;100.00
70544;BME280;58097;48.364;-1.224;2024-01-15T10:52:37;99185.50;;;5.00;100.00
70544;BME280;58097;48.364;-1.224;2024-01-15T10:55:03;99185.50;;;5.10;100.00
70544;BME280;58097;48.364;-1.224;2024-01-15T10:57:30;99186.66;;;5.17;100.00
70544;BME280;58097;48.364;-1.224;2024-01-15T10:59:55;99195.13;;;4.75;100.00
70544;BME280;58097;48.364;-1.224;2024-01-15T11:02:21;99189.09;;;4.81;100.00
70544;BME280;58097;48.364;-1.224;2024-01-15T11:04:47;99193.13;;;4.77;100.00
70544;BME280;58097;48.364;-1.224;2024-01-15T11:07:13;99198.31;;;4.71;100.00
70544;BME280;58097;48.364;-1.224;2024-01-15T11:09:39;99182.31;;;4.85;100.00
70544;BME280;58097;48.364;-1.224;2024-01-15T11:14:34;99182.03;;;5.08;100.00
70544;BME280;58097;48.364;-1.224;2024-01-15T11:17:00;99188.25;;;5.29;100.00
70544;BME280;58097;48.364;-1.224;2024-01-15T11:19:38;99184.47;;;5.49;100.00
70544;BME280;58097;48.364;-1.224;2024-01-15T11:24:56;99179.84;;;5.59;98.67
70544;BME280;58097;48.364;-1.224;2024-01-15T11:30:12;99181.94;;;5.95;100.00
70544;BME280;58097;48.364;-1.224;2024-01-15T11:32:39;99183.69;;;6.23;100.00
70544;BME280;58097;48.364;-1.224;2024-01-15T11:35:09;99187.38;;;6.41;100.00
70544;BME280;58097;48.364;-1.224;2024-01-15T11:40:20;99175.34;;;6.70;98.13
70544;BME280;58097;48.364;-1.224;2024-01-15T11:42:46;99184.06;;;6.83;99.97
70544;BME280;58097;48.364;-1.224;2024-01-15T11:45:13;99175.66;;;6.84;96.84
70544;BME280;58097;48.364;-1.224;2024-01-15T11:50:24;99181.56;;;6.90;96.93
70544;BME280;58097;48.364;-1.224;2024-01-15T11:53:55;99179.31;;;7.03;91.89
70544;BME280;58097;48.364;-1.224;2024-01-15T11:55:58;99176.31;;;6.96;90.56
70544;BME280;58097;48.364;-1.224;2024-01-15T11:58:24;99182.81;;;7.13;93.36
70544;BME280;58097;48.364;-1.224;2024-01-15T12:00:51;99176.69;;;7.19;90.71
70544;BME280;58097;48.364;-1.224;2024-01-15T12:03:20;99175.22;;;7.25;88.59
70544;BME280;58097;48.364;-1.224;2024-01-15T12:05:45;99179.13;;;7.40;91.25
70544;BME280;58097;48.364;-1.224;2024-01-15T12:08:10;99178.75;;;7.35;88.45
70544;BME280;58097;48.364;-1.224;2024-01-15T12:10:37;99173.72;;;7.30;86.84
70544;BME280;58097;48.364;-1.224;2024-01-15T12:13:13;99177.22;;;7.23;85.13
70544;BME280;58097;48.364;-1.224;2024-01-15T12:15:39;99170.28;;;7.28;86.80
70544;BME280;58097;48.364;-1.224;2024-01-15T12:18:10;99174.25;;;7.34;86.91
70544;BME280;58097;48.364;-1.224;2024-01-15T12:20:35;99170.75;;;7.24;84.16
70544;BME280;58097;48.364;-1.224;2024-01-15T12:23:02;99170.59;;;7.25;85.51
70544;BME280;58097;48.364;-1.224;2024-01-15T12:25:35;99170.91;;;7.04;76.39
70544;BME280;58097;48.364;-1.224;2024-01-15T12:28:01;99172.38;;;6.81;78.12
70544;BME280;58097;48.364;-1.224;2024-01-15T12:30:27;99178.50;;;6.93;82.07
70544;BME280;58097;48.364;-1.224;2024-01-15T12:32:53;99178.22;;;6.96;80.56
70544;BME280;58097;48.364;-1.224;2024-01-15T12:35:18;99169.88;;;7.05;81.73
70544;BME280;58097;48.364;-1.224;2024-01-15T12:37:44;99171.06;;;7.03;77.40
70544;BME280;58097;48.364;-1.224;2024-01-15T12:40:12;99171.13;;;6.93;78.02
70544;BME280;58097;48.364;-1.224;2024-01-15T12:42:38;99175.84;;;7.01;78.04
70544;BME280;58097;48.364;-1.224;2024-01-15T12:45:11;99164.63;;;7.12;83.37
70544;BME280;58097;48.364;-1.224;2024-01-15T12:47:37;99169.94;;;7.13;77.46
70544;BME280;58097;48.364;-1.224;2024-01-15T12:50:02;99171.84;;;7.13;77.27
70544;BME280;58097;48.364;-1.224;2024-01-15T12:52:31;99175.84;;;7.19;80.16
70544;BME280;58097;48.364;-1.224;2024-01-15T12:54:56;99178.19;;;7.13;77.13
70544;BME280;58097;48.364;-1.224;2024-01-15T12:57:22;99179.16;;;7.04;75.49